Time;durP1;ratioP1;P1;durP2;ratioP2;P2;SDS_P1;SDS_P2;PMS_P1;PMS_P2;Temp;Humidity;BMP_temperature;BMP_pressure;BME280_temperature;BME280_humidity;BME280_pressure;Samples;Min_cycle;Max_cycle;Signal;HPM_P1;HPM_P2
2023/10/21 00:00:45;;;;;;;43.20;20.00;;;;;;;;;;4972144;28;20023;-78
2023/10/21 00:03:11;;;;;;;46.65;19.95;;;;;;;;;;4945019;28;20027;-78
2023/10/21 00:05:38;;;;;;;48.58;20.45;;;;;;;;;;4965592;28;20019;-80
2023/10/21 00:08:04;;;;;;;45.90;20.42;;;;;;;;;;4970098;28;20057;-78
2023/10/21 00:10:30;;;;;;;42.25;18.45;;;;;;;;;;4970827;28;20098;-79
2023/10/21 00:12:56;;;;;;;47.90;20.25;;;;;;;;;;4948817;28;20035;-79
2023/10/21 00:15:23;;;;;;;42.17;19.20;;;;;;;;;;4966188;28;20089;-79
2023/10/21 00:17:49;;;;;;;46.72;19.40;;;;;;;;;;4967159;28;21347;-79
2023/10/21 00:20:15;;;;;;;51.53;20.77;;;;;;;;;;4944665;28;20396;-78
2023/10/21 00:22:42;;;;;;;50.25;20.80;;;;;;;;;;4931696;28;20058;-79
2023/10/21 00:25:08;;;;;;;46.72;19.88;;;;;;;;;;4931734;28;20047;-78
2023/10/21 00:27:34;;;;;;;49.10;20.95;;;;;;;;;;4963884;28;20277;-79
2023/10/21 00:30:00;;;;;;;57.50;21.10;;;;;;;;;;4946485;28;20053;-79
2023/10/21 00:32:26;;;;;;;54.28;22.02;;;;;;;;;;4950146;28;20023;-78
2023/10/21 00:34:53;;;;;;;49.78;20.75;;;;;;;;;;4949468;28;20062;-79
2023/10/21 00:37:19;;;;;;;51.53;20.88;;;;;;;;;;4963687;28;20061;-79
2023/10/21 00:39:46;;;;;;;51.70;21.27;;;;;;;;;;4964070;28;20039;-79
2023/10/21 00:42:12;;;;;;;65.18;21.98;;;;;;;;;;4941963;28;20050;-79
2023/10/21 00:44:38;;;;;;;50.80;20.52;;;;;;;;;;4948360;28;20031;-80
2023/10/21 00:47:04;;;;;;;56.65;21.95;;;;;;;;;;4945889;28;20607;-79
2023/10/21 00:49:31;;;;;;;57.17;21.67;;;;;;;;;;4966158;28;20141;-78
2023/10/21 00:51:58;;;;;;;50.05;21.75;;;;;;;;;;4946541;28;21466;-78
2023/10/21 00:54:28;;;;;;;53.03;22.17;;;;;;;;;;4949420;28;20023;-79
2023/10/21 00:56:54;;;;;;;57.67;22.60;;;;;;;;;;4945655;28;20027;-78
2023/10/21 00:59:21;;;;;;;52.38;22.10;;;;;;;;;;4965285;28;20035;-79
2023/10/21 01:01:48;;;;;;;56.67;22.50;;;;;;;;;;4968095;28;20110;-78
2023/10/21 01:04:14;;;;;;;54.72;23.83;;;;;;;;;;4966880;28;20086;-79
2023/10/21 01:06:43;;;;;;;46.13;21.63;;;;;;;;;;4949001;28;20314;-79
2023/10/21 01:09:13;;;;;;;48.40;20.88;;;;;;;;;;4970751;28;20086;-80
2023/10/21 01:11:40;;;;;;;53.40;22.40;;;;;;;;;;4932431;28;20034;-80
2023/10/21 01:14:07;;;;;;;51.05;22.02;;;;;;;;;;4958046;28;20133;-79
2023/10/21 01:16:33;;;;;;;54.90;22.15;;;;;;;;;;4966083;28;20495;-78
2023/10/21 01:18:59;;;;;;;54.03;23.27;;;;;;;;;;4961650;28;20246;-80
2023/10/21 01:21:25;;;;;;;48.95;22.15;;;;;;;;;;4969945;28;20167;-80
2023/10/21 01:23:52;;;;;;;50.17;22.88;;;;;;;;;;4934621;28;20046;-80
2023/10/21 01:26:18;;;;;;;55.22;23.33;;;;;;;;;;4953549;28;20032;-80
2023/10/21 01:28:45;;;;;;;50.55;22.17;;;;;;;;;;4965179;28;20070;-80
2023/10/21 01:31:12;;;;;;;50.25;22.40;;;;;;;;;;4902803;29;20048;-77
2023/10/21 01:33:38;;;;;;;55.40;23.65;;;;;;;;;;4889907;29;20032;-81
2023/10/21 01:36:05;;;;;;;56.55;22.35;;;;;;;;;;4892203;29;20148;-78
2023/10/21 01:38:32;;;;;;;58.88;23.83;;;;;;;;;;4876658;29;20436;-79
2023/10/21 01:40:58;;;;;;;54.88;23.42;;;;;;;;;;4908772;29;20246;-80
2023/10/21 01:43:24;;;;;;;57.88;23.85;;;;;;;;;;4906614;29;20036;-80
2023/10/21 01:45:50;;;;;;;52.00;23.38;;;;;;;;;;4892640;29;20171;-80
2023/10/21 01:48:16;;;;;;;55.15;23.92;;;;;;;;;;4890741;29;20047;-80
2023/10/21 01:50:43;;;;;;;60.38;23.52;;;;;;;;;;4878879;29;20048;-80
2023/10/21 01:53:09;;;;;;;51.28;23.92;;;;;;;;;;4874232;29;20033;-80
2023/10/21 01:55:35;;;;;;;57.05;22.85;;;;;;;;;;4875503;29;20072;-80
2023/10/21 01:58:02;;;;;;;50.72;22.75;;;;;;;;;;4891274;29;20028;-80
2023/10/21 02:00:28;;;;;;;49.47;22.55;;;;;;;;;;4892706;29;20059;-80
2023/10/21 02:02:55;;;;;;;51.72;21.80;;;;;;;;;;4937036;28;20035;-80
2023/10/21 02:05:22;;;;;;;53.78;21.98;;;;;;;;;;4968590;28;20102;-79
2023/10/21 02:07:50;;;;;;;39.53;20.80;;;;;;;;;;4965317;28;20061;-79
2023/10/21 02:10:20;;;;;;;51.40;21.90;;;;;;;;;;4966002;28;20035;-78
2023/10/21 02:12:46;;;;;;;47.65;20.60;;;;;;;;;;4965523;28;20039;-79
2023/10/21 02:15:14;;;;;;;56.67;21.52;;;;;;;;;;4968265;28;20111;-78
2023/10/21 02:17:42;;;;;;;55.08;22.02;;;;;;;;;;4957510;28;20023;-79
2023/10/21 02:20:10;;;;;;;42.95;20.85;;;;;;;;;;4964492;28;20055;-80
2023/10/21 02:22:36;;;;;;;45.72;20.48;;;;;;;;;;4966212;28;20303;-78
2023/10/21 02:25:02;;;;;;;44.47;21.58;;;;;;;;;;4961556;28;20039;-78
2023/10/21 02:27:29;;;;;;;47.13;21.52;;;;;;;;;;4965065;28;20046;-78
2023/10/21 02:29:55;;;;;;;43.13;20.80;;;;;;;;;;4950644;28;20102;-79
2023/10/21 02:32:21;;;;;;;45.85;21.13;;;;;;;;;;4935599;28;20126;-79
2023/10/21 02:34:47;;;;;;;46.58;20.83;;;;;;;;;;4971250;28;20106;-77
2023/10/21 02:37:13;;;;;;;46.10;22.25;;;;;;;;;;4957500;28;20564;-80
2023/10/21 02:39:40;;;;;;;47.25;21.73;;;;;;;;;;4973204;28;20042;-80
2023/10/21 02:42:06;;;;;;;50.53;21.05;;;;;;;;;;4964185;28;20045;-78
2023/10/21 02:44:32;;;;;;;53.38;21.98;;;;;;;;;;4966142;28;20104;-80
2023/10/21 02:46:59;;;;;;;53.20;22.23;;;;;;;;;;4939079;28;20039;-81
2023/10/21 02:49:26;;;;;;;49.42;21.73;;;;;;;;;;4968608;28;20043;-80
2023/10/21 02:51:52;;;;;;;53.50;21.30;;;;;;;;;;4947288;28;20114;-80
2023/10/21 02:54:18;;;;;;;54.28;22.75;;;;;;;;;;4966870;28;20027;-80
2023/10/21 02:56:44;;;;;;;48.15;21.00;;;;;;;;;;4965143;28;20035;-79
2023/10/21 02:59:11;;;;;;;55.25;21.83;;;;;;;;;;4963746;28;20031;-80
2023/10/21 03:01:37;;;;;;;52.13;21.95;;;;;;;;;;4959320;28;20035;-79
2023/10/21 03:04:03;;;;;;;53.75;22.33;;;;;;;;;;4965389;28;20359;-78
2023/10/21 03:06:29;;;;;;;54.47;21.70;;;;;;;;;;4929868;28;20039;-79
2023/10/21 03:08:56;;;;;;;48.83;22.58;;;;;;;;;;4946442;28;20057;-79
2023/10/21 03:11:24;;;;;;;50.92;22.38;;;;;;;;;;4964538;28;20503;-79
2023/10/21 03:13:50;;;;;;;54.65;22.63;;;;;;;;;;4948255;28;20027;-78
2023/10/21 03:16:16;;;;;;;60.08;23.65;;;;;;;;;;4932601;28;20032;-78
2023/10/21 03:18:45;;;;;;;52.67;23.40;;;;;;;;;;4966251;28;20512;-79
2023/10/21 03:21:12;;;;;;;53.50;23.90;;;;;;;;;;4963160;28;20034;-79
2023/10/21 03:23:38;;;;;;;52.00;24.40;;;;;;;;;;4945272;28;20058;-80
2023/10/21 03:26:05;;;;;;;47.05;22.25;;;;;;;;;;4947961;28;20054;-79
2023/10/21 03:28:32;;;;;;;54.45;22.75;;;;;;;;;;4964229;28;20488;-80
2023/10/21 03:31:04;;;;;;;56.35;22.92;;;;;;;;;;4965059;28;20041;-78
2023/10/21 03:33:30;;;;;;;47.05;22.40;;;;;;;;;;4966502;28;20035;-79
2023/10/21 03:35:57;;;;;;;54.13;22.38;;;;;;;;;;4965571;28;20086;-80
2023/10/21 03:38:24;;;;;;;57.47;23.67;;;;;;;;;;4965604;28;20044;-79
2023/10/21 03:41:04;;;;;;;52.85;25.15;;;;;;;;;;4932333;28;20026;-79
2023/10/21 03:43:30;;;;;;;59.47;24.90;;;;;;;;;;4963328;28;20114;-80
2023/10/21 03:45:57;;;;;;;52.95;25.52;;;;;;;;;;4963974;28;20496;-78
2023/10/21 03:48:23;;;;;;;64.70;25.85;;;;;;;;;;4966218;28;20031;-77
2023/10/21 03:50:50;;;;;;;63.38;25.17;;;;;;;;;;4963449;28;20030;-79
2023/10/21 03:53:16;;;;;;;54.03;24.98;;;;;;;;;;4948730;28;20031;-79
2023/10/21 03:55:43;;;;;;;57.35;25.85;;;;;;;;;;4963158;28;20031;-79
2023/10/21 03:58:10;;;;;;;57.50;25.05;;;;;;;;;;4947389;28;20043;-78
2023/10/21 04:00:37;;;;;;;62.42;23.45;;;;;;;;;;4945996;28;20144;-78
2023/10/21 04:03:03;;;;;;;56.83;23.23;;;;;;;;;;4947693;28;20181;-79
2023/10/21 04:05:29;;;;;;;58.58;24.63;;;;;;;;;;4963445;28;20038;-79
2023/10/21 04:07:56;;;;;;;61.15;25.23;;;;;;;;;;4947608;28;20085;-78
2023/10/21 04:10:22;;;;;;;52.75;23.05;;;;;;;;;;4965425;28;20568;-78
2023/10/21 04:12:48;;;;;;;50.78;24.17;;;;;;;;;;4944856;28;20038;-80
2023/10/21 04:15:15;;;;;;;59.40;23.70;;;;;;;;;;4932676;28;20027;-80
2023/10/21 04:17:45;;;;;;;55.13;23.92;;;;;;;;;;4948419;28;20027;-77
2023/10/21 04:20:18;;;;;;;58.95;24.10;;;;;;;;;;4971284;28;20035;-79
2023/10/21 04:22:44;;;;;;;59.60;23.10;;;;;;;;;;4952396;28;20038;-81
2023/10/21 04:25:13;;;;;;;55.63;24.27;;;;;;;;;;4967461;28;20072;-80
2023/10/21 04:27:39;;;;;;;65.82;26.25;;;;;;;;;;4947732;28;20050;-80
2023/10/21 04:30:07;;;;;;;58.55;23.38;;;;;;;;;;4948916;28;20043;-79
2023/10/21 04:32:34;;;;;;;59.58;25.67;;;;;;;;;;4966400;28;20026;-80
2023/10/21 04:35:00;;;;;;;54.83;25.02;;;;;;;;;;4966465;28;20023;-81
2023/10/21 04:37:27;;;;;;;62.35;25.80;;;;;;;;;;4963373;28;20027;-80
2023/10/21 04:39:53;;;;;;;59.78;24.15;;;;;;;;;;4930582;28;20163;-79
2023/10/21 04:42:19;;;;;;;55.88;23.55;;;;;;;;;;4952077;28;20121;-77
2023/10/21 04:44:45;;;;;;;51.40;23.45;;;;;;;;;;4947969;28;20310;-78
2023/10/21 04:47:12;;;;;;;57.92;23.95;;;;;;;;;;4964321;28;20066;-79
2023/10/21 04:49:41;;;;;;;58.20;23.48;;;;;;;;;;4967301;28;20180;-78
2023/10/21 04:52:08;;;;;;;49.60;23.85;;;;;;;;;;4960130;28;20256;-77
2023/10/21 04:54:34;;;;;;;56.47;23.98;;;;;;;;;;4947178;28;20039;-80
2023/10/21 04:57:00;;;;;;;48.38;21.27;;;;;;;;;;4963041;28;20030;-79
2023/10/21 04:59:27;;;;;;;67.95;23.98;;;;;;;;;;4963981;28;20105;-78
2023/10/21 05:01:53;;;;;;;65.22;22.65;;;;;;;;;;4950197;28;20031;-80
2023/10/21 05:04:20;;;;;;;54.80;23.35;;;;;;;;;;4963360;28;20042;-79
2023/10/21 05:06:46;;;;;;;53.60;22.33;;;;;;;;;;4961055;28;20046;-77
2023/10/21 05:09:12;;;;;;;49.90;22.50;;;;;;;;;;4966551;28;20049;-80
2023/10/21 05:11:39;;;;;;;50.53;24.23;;;;;;;;;;4949053;28;20190;-80
2023/10/21 05:14:05;;;;;;;54.50;22.73;;;;;;;;;;4968011;28;20035;-78
2023/10/21 05:16:31;;;;;;;51.00;23.45;;;;;;;;;;4963310;28;20139;-78
2023/10/21 05:18:57;;;;;;;48.08;22.27;;;;;;;;;;4950397;28;20058;-78
2023/10/21 05:21:24;;;;;;;63.75;25.58;;;;;;;;;;4965694;28;20047;-78
2023/10/21 05:23:51;;;;;;;52.03;23.75;;;;;;;;;;4971378;28;20295;-79
2023/10/21 05:26:18;;;;;;;51.67;24.58;;;;;;;;;;4979526;28;20201;-79
2023/10/21 05:28:45;;;;;;;56.30;25.83;;;;;;;;;;4979555;28;20090;-78
2023/10/21 05:31:11;;;;;;;59.17;25.90;;;;;;;;;;4937593;28;20426;-78
2023/10/21 05:33:37;;;;;;;57.22;26.85;;;;;;;;;;4943648;28;20065;-78
2023/10/21 05:36:04;;;;;;;59.22;25.73;;;;;;;;;;4950194;28;20485;-77
2023/10/21 05:38:30;;;;;;;54.92;25.40;;;;;;;;;;4948828;28;20077;-78
2023/10/21 05:40:59;;;;;;;48.63;23.30;;;;;;;;;;4964087;28;20552;-77
2023/10/21 05:43:26;;;;;;;53.28;22.23;;;;;;;;;;4963414;28;20031;-78
2023/10/21 05:45:53;;;;;;;47.25;22.30;;;;;;;;;;4961833;28;20038;-80
2023/10/21 05:48:20;;;;;;;52.45;22.73;;;;;;;;;;4945649;28;20027;-78
2023/10/21 05:50:47;;;;;;;57.72;22.70;;;;;;;;;;4952832;28;20417;-78
2023/10/21 05:53:13;;;;;;;48.70;21.52;;;;;;;;;;4965230;28;20460;-79
2023/10/21 05:55:45;;;;;;;55.78;22.35;;;;;;;;;;4971811;28;20445;-78
2023/10/21 05:58:11;;;;;;;44.63;21.05;;;;;;;;;;4964655;28;20027;-79
2023/10/21 06:00:38;;;;;;;58.28;22.10;;;;;;;;;;4968244;28;20121;-79
2023/10/21 06:03:07;;;;;;;38.55;20.83;;;;;;;;;;4929301;28;20066;-80
2023/10/21 06:05:33;;;;;;;42.92;20.80;;;;;;;;;;4973994;28;20035;-84
2023/10/21 06:07:59;;;;;;;41.60;19.67;;;;;;;;;;4940921;28;20110;-80
2023/10/21 06:10:26;;;;;;;43.08;20.38;;;;;;;;;;4946590;28;20584;-81
2023/10/21 06:12:52;;;;;;;49.83;20.33;;;;;;;;;;4936671;28;20039;-79
2023/10/21 06:15:18;;;;;;;47.47;19.35;;;;;;;;;;4969526;28;20031;-78
2023/10/21 06:17:45;;;;;;;39.33;18.90;;;;;;;;;;4935465;28;20037;-81
2023/10/21 06:20:11;;;;;;;51.15;19.58;;;;;;;;;;4970333;28;20065;-80
2023/10/21 06:22:37;;;;;;;43.63;20.20;;;;;;;;;;4962656;28;20074;-80
2023/10/21 06:25:04;;;;;;;46.58;18.95;;;;;;;;;;4946624;28;20060;-80
2023/10/21 06:27:30;;;;;;;40.90;20.17;;;;;;;;;;4942524;29;20118;-80
2023/10/21 06:29:56;;;;;;;55.97;20.80;;;;;;;;;;4933638;28;20039;-81
2023/10/21 06:32:22;;;;;;;45.15;20.50;;;;;;;;;;4947539;28;20102;-80
2023/10/21 06:34:50;;;;;;;44.53;19.70;;;;;;;;;;4953202;28;20035;-79
2023/10/21 06:37:16;;;;;;;44.03;19.92;;;;;;;;;;4950172;28;20133;-79
2023/10/21 06:39:42;;;;;;;40.88;20.42;;;;;;;;;;4963143;28;20047;-78
2023/10/21 06:42:08;;;;;;;50.45;19.85;;;;;;;;;;4933679;28;20219;-77
2023/10/21 06:44:36;;;;;;;45.05;19.83;;;;;;;;;;4943497;28;20077;-80
2023/10/21 06:47:02;;;;;;;42.85;20.08;;;;;;;;;;4927302;28;20031;-79
2023/10/21 06:49:28;;;;;;;44.42;19.17;;;;;;;;;;4970725;28;20125;-78
2023/10/21 06:51:55;;;;;;;40.15;18.23;;;;;;;;;;4950642;28;20042;-79
2023/10/21 06:54:21;;;;;;;43.38;19.20;;;;;;;;;;4967929;28;20038;-80
2023/10/21 06:56:47;;;;;;;40.75;19.13;;;;;;;;;;4944839;28;20130;-79
2023/10/21 06:59:14;;;;;;;37.95;18.25;;;;;;;;;;4965637;28;20035;-79
2023/10/21 07:01:40;;;;;;;39.03;17.25;;;;;;;;;;4966855;28;20029;-79
2023/10/21 07:04:10;;;;;;;36.78;16.65;;;;;;;;;;4949827;28;20039;-77
2023/10/21 07:06:39;;;;;;;35.55;17.38;;;;;;;;;;4970377;28;20458;-79
2023/10/21 07:09:06;;;;;;;39.58;16.42;;;;;;;;;;4971114;28;20030;-78
2023/10/21 07:11:33;;;;;;;39.25;16.42;;;;;;;;;;4967037;28;20051;-79
2023/10/21 07:13:59;;;;;;;33.33;15.65;;;;;;;;;;4951578;28;20039;-79
2023/10/21 07:16:25;;;;;;;33.22;15.68;;;;;;;;;;4966657;28;20023;-78
2023/10/21 07:18:51;;;;;;;35.83;16.10;;;;;;;;;;4969895;28;20078;-79
2023/10/21 07:21:19;;;;;;;39.03;17.60;;;;;;;;;;4970582;28;20031;-79
2023/10/21 07:23:46;;;;;;;32.22;15.18;;;;;;;;;;4967917;28;20043;-78
2023/10/21 07:26:12;;;;;;;38.53;15.18;;;;;;;;;;4968469;28;20051;-79
2023/10/21 07:28:38;;;;;;;34.53;15.30;;;;;;;;;;4952227;28;20034;-80
2023/10/21 07:31:04;;;;;;;29.80;14.65;;;;;;;;;;4968930;28;20058;-78
2023/10/21 07:33:30;;;;;;;32.78;15.38;;;;;;;;;;4970604;28;20023;-79
2023/10/21 07:35:56;;;;;;;32.95;15.32;;;;;;;;;;4953435;28;20057;-79
2023/10/21 07:38:24;;;;;;;28.83;14.30;;;;;;;;;;4969261;28;20027;-77
2023/10/21 07:40:50;;;;;;;30.02;14.30;;;;;;;;;;4968634;28;20053;-77
2023/10/21 07:43:16;;;;;;;28.98;14.27;;;;;;;;;;4967169;28;20039;-78
2023/10/21 07:45:43;;;;;;;40.85;14.63;;;;;;;;;;4953796;28;20050;-80
2023/10/21 07:48:10;;;;;;;36.25;14.45;;;;;;;;;;4970547;28;20396;-80
2023/10/21 07:50:36;;;;;;;29.88;14.07;;;;;;;;;;4969113;28;20053;-80
2023/10/21 07:53:02;;;;;;;32.03;14.45;;;;;;;;;;4967775;28;20039;-80
2023/10/21 07:55:28;;;;;;;28.02;11.68;;;;;;;;;;4951131;28;20038;-79
2023/10/21 07:57:55;;;;;;;25.65;11.57;;;;;;;;;;4951258;28;20082;-80
2023/10/21 08:00:21;;;;;;;23.67;11.23;;;;;;;;;;4964673;28;20034;-79
2023/10/21 08:02:48;;;;;;;21.05;11.10;;;;;;;;;;4968117;28;20823;-78
2023/10/21 08:05:15;;;;;;;19.52;11.50;;;;;;;;;;4967497;28;20369;-78
2023/10/21 08:07:41;;;;;;;25.05;12.48;;;;;;;;;;4967312;28;20053;-79
2023/10/21 08:10:09;;;;;;;27.98;12.25;;;;;;;;;;4935178;29;20106;-80
2023/10/21 08:12:35;;;;;;;23.35;13.57;;;;;;;;;;4962486;28;20035;-80
2023/10/21 08:15:07;;;;;;;23.27;11.88;;;;;;;;;;4973872;28;20057;-79
2023/10/21 08:17:33;;;;;;;19.92;12.30;;;;;;;;;;4937635;28;20031;-78
2023/10/21 08:20:00;;;;;;;17.67;11.15;;;;;;;;;;4954871;28;20101;-78
2023/10/21 08:22:27;;;;;;;20.10;11.23;;;;;;;;;;4967687;28;20043;-78
2023/10/21 08:24:53;;;;;;;17.02;10.52;;;;;;;;;;4936146;28;20543;-78
2023/10/21 08:27:19;;;;;;;21.48;11.07;;;;;;;;;;4953931;28;20125;-80
2023/10/21 08:29:45;;;;;;;17.40;10.68;;;;;;;;;;4954013;28;20082;-86
2023/10/21 08:32:11;;;;;;;14.27;8.80;;;;;;;;;;4969806;28;20033;-77
2023/10/21 08:34:38;;;;;;;14.13;8.80;;;;;;;;;;4937978;28;20027;-77
2023/10/21 08:37:05;;;;;;;15.60;9.07;;;;;;;;;;4953912;28;20175;-79
2023/10/21 08:39:31;;;;;;;14.32;8.75;;;;;;;;;;4956083;28;20046;-79
2023/10/21 08:41:58;;;;;;;12.18;8.35;;;;;;;;;;4953222;28;20050;-77
2023/10/21 08:44:24;;;;;;;12.93;7.95;;;;;;;;;;4939155;28;20074;-79
2023/10/21 08:46:53;;;;;;;12.40;8.07;;;;;;;;;;4937579;28;20092;-78
2023/10/21 08:49:20;;;;;;;11.32;8.23;;;;;;;;;;4971237;28;20023;-78
2023/10/21 08:51:46;;;;;;;10.98;7.43;;;;;;;;;;4938241;28;20113;-78
2023/10/21 08:54:13;;;;;;;11.15;6.40;;;;;;;;;;4954302;28;20479;-78
2023/10/21 08:56:40;;;;;;;8.43;4.78;;;;;;;;;;4957496;28;20045;-77
2023/10/21 08:59:06;;;;;;;7.50;3.88;;;;;;;;;;4941064;28;20325;-77
2023/10/21 09:01:32;;;;;;;7.75;3.72;;;;;;;;;;4972973;28;20042;-77
2023/10/21 09:03:59;;;;;;;5.88;3.35;;;;;;;;;;4972219;28;20051;-78
2023/10/21 09:06:25;;;;;;;4.13;2.42;;;;;;;;;;4972628;28;20046;-77
2023/10/21 09:08:51;;;;;;;6.28;1.98;;;;;;;;;;4972933;28;20043;-77
2023/10/21 09:11:18;;;;;;;7.57;2.00;;;;;;;;;;4956240;28;20034;-79
2023/10/21 09:13:45;;;;;;;5.05;1.95;;;;;;;;;;4970901;28;20102;-78
2023/10/21 09:16:21;;;;;;;3.63;1.50;;;;;;;;;;4969752;28;20172;-78
2023/10/21 09:19:01;;;;;;;6.68;1.65;;;;;;;;;;4939957;28;20035;-78
2023/10/21 09:21:48;;;;;;;7.35;1.63;;;;;;;;;;4954601;28;20027;-79
2023/10/21 09:24:22;;;;;;;8.10;2.55;;;;;;;;;;4938599;28;20031;-77
2023/10/21 09:26:48;;;;;;;3.47;1.35;;;;;;;;;;4955440;28;20407;-77
2023/10/21 09:29:20;;;;;;;7.25;1.75;;;;;;;;;;4972987;28;20058;-77
2023/10/21 09:31:53;;;;;;;3.08;1.35;;;;;;;;;;4989574;28;20030;-78
2023/10/21 09:34:33;;;;;;;3.45;1.40;;;;;;;;;;4955493;28;20520;-78
2023/10/21 09:36:59;;;;;;;4.70;1.20;;;;;;;;;;4972697;28;20031;-77
2023/10/21 09:39:26;;;;;;;5.53;1.50;;;;;;;;;;4939458;28;20049;-77
2023/10/21 09:41:52;;;;;;;5.93;1.35;;;;;;;;;;4955762;28;20107;-77
2023/10/21 09:44:19;;;;;;;5.72;1.90;;;;;;;;;;4954095;28;20041;-78
2023/10/21 09:46:46;;;;;;;4.88;1.25;;;;;;;;;;4971989;28;20035;-77
2023/10/21 09:49:13;;;;;;;1.80;1.02;;;;;;;;;;4954855;28;20038;-76
2023/10/21 09:52:06;;;;;;;4.18;1.42;;;;;;;;;;4955785;28;20511;-78
2023/10/21 09:54:40;;;;;;;4.03;1.55;;;;;;;;;;4965242;28;20035;-77
2023/10/21 09:57:08;;;;;;;2.92;1.10;;;;;;;;;;4950320;28;20035;-78
2023/10/21 09:59:35;;;;;;;5.95;1.35;;;;;;;;;;4969324;28;20034;-79
2023/10/21 10:02:02;;;;;;;3.65;1.13;;;;;;;;;;4952695;28;20031;-78
2023/10/21 10:04:28;;;;;;;8.48;1.38;;;;;;;;;;4960306;28;20070;-78
2023/10/21 10:06:58;;;;;;;3.97;1.63;;;;;;;;;;4949233;28;20027;-77
2023/10/21 10:09:27;;;;;;;4.10;1.30;;;;;;;;;;4955070;28;20709;-77
2023/10/21 10:11:58;;;;;;;3.70;1.00;;;;;;;;;;4935728;29;20027;-77
2023/10/21 10:14:25;;;;;;;3.97;1.50;;;;;;;;;;4965314;28;20396;-77
2023/10/21 10:16:51;;;;;;;3.58;1.15;;;;;;;;;;4972692;28;20052;-77
2023/10/21 10:19:37;;;;;;;9.70;2.03;;;;;;;;;;4971285;28;20031;-78
2023/10/21 10:22:19;;;;;;;4.22;1.20;;;;;;;;;;4938221;28;20130;-79
2023/10/21 10:24:58;;;;;;;6.50;1.50;;;;;;;;;;4953512;28;20038;-79
2023/10/21 10:27:25;;;;;;;4.65;1.52;;;;;;;;;;4973124;28;20097;-77
2023/10/21 10:29:52;;;;;;;3.03;1.40;;;;;;;;;;4955365;28;20106;-77
2023/10/21 10:32:20;;;;;;;8.30;1.77;;;;;;;;;;4968546;28;20038;-78
2023/10/21 10:34:53;;;;;;;6.32;1.50;;;;;;;;;;4970885;28;20058;-78
2023/10/21 10:37:30;;;;;;;6.28;1.75;;;;;;;;;;4983848;28;20030;-77
2023/10/21 10:39:56;;;;;;;4.90;1.35;;;;;;;;;;4975182;28;20038;-78
2023/10/21 10:42:29;;;;;;;6.22;1.92;;;;;;;;;;4971551;28;20042;-77
2023/10/21 10:44:55;;;;;;;6.95;1.50;;;;;;;;;;4967403;28;20058;-78
2023/10/21 10:47:26;;;;;;;7.32;1.70;;;;;;;;;;4968379;28;20109;-79
2023/10/21 10:50:00;;;;;;;3.63;1.10;;;;;;;;;;4952847;28;20042;-79
2023/10/21 10:52:33;;;;;;;7.07;1.40;;;;;;;;;;4971338;28;20042;-79
2023/10/21 10:55:03;;;;;;;6.20;1.90;;;;;;;;;;4953961;28;20038;-79
2023/10/21 10:57:30;;;;;;;8.63;1.95;;;;;;;;;;4951769;28;20377;-79
2023/10/21 10:59:56;;;;;;;6.68;1.50;;;;;;;;;;4953624;28;20105;-78
2023/10/21 11:02:27;;;;;;;6.22;1.42;;;;;;;;;;4937699;28;20026;-79
2023/10/21 11:04:56;;;;;;;5.07;1.35;;;;;;;;;;4971451;28;20184;-78
2023/10/21 11:07:22;;;;;;;8.52;2.38;;;;;;;;;;4937809;28;20129;-77
2023/10/21 11:09:58;;;;;;;5.40;1.15;;;;;;;;;;4967431;28;20038;-77
2023/10/21 11:12:27;;;;;;;5.32;1.27;;;;;;;;;;4970495;28;20030;-79
2023/10/21 11:14:54;;;;;;;7.75;1.30;;;;;;;;;;4968486;28;20026;-78
2023/10/21 11:17:20;;;;;;;4.63;1.40;;;;;;;;;;4973572;28;20026;-79
2023/10/21 11:19:47;;;;;;;6.95;1.80;;;;;;;;;;4972085;28;20061;-78
2023/10/21 11:22:19;;;;;;;6.32;1.25;;;;;;;;;;4966210;28;20040;-78
2023/10/21 11:24:46;;;;;;;6.40;1.52;;;;;;;;;;4938816;28;20110;-78
2023/10/21 11:27:14;;;;;;;9.85;2.10;;;;;;;;;;4968744;28;20046;-78
2023/10/21 11:29:40;;;;;;;9.90;1.40;;;;;;;;;;4955492;28;20035;-78
2023/10/21 11:32:11;;;;;;;8.38;1.95;;;;;;;;;;4965774;28;20031;-77
2023/10/21 11:34:37;;;;;;;7.70;1.80;;;;;;;;;;4971160;28;20094;-77
2023/10/21 11:37:06;;;;;;;6.65;1.45;;;;;;;;;;4962033;28;20027;-79
2023/10/21 11:39:33;;;;;;;8.85;1.70;;;;;;;;;;4959405;28;20043;-80
2023/10/21 11:41:59;;;;;;;6.47;1.20;;;;;;;;;;4968270;28;20137;-78
2023/10/21 11:44:27;;;;;;;5.32;1.38;;;;;;;;;;4970650;28;20215;-79
2023/10/21 11:47:03;;;;;;;4.38;1.23;;;;;;;;;;4968466;28;20089;-78
2023/10/21 11:49:33;;;;;;;6.93;1.30;;;;;;;;;;4962509;28;20729;-80
2023/10/21 11:52:00;;;;;;;7.60;1.45;;;;;;;;;;4946576;28;20093;-80
2023/10/21 11:55:20;;;;;;;6.38;1.42;;;;;;;;;;4968696;28;20074;-79
2023/10/21 12:13:42;;;;;;;10.77;1.70;;;;;;;;;;4960790;28;20074;-77
2023/10/21 12:24:51;;;;;;;8.05;1.98;;;;;;;;;;4952375;28;20054;-77
2023/10/21 12:35:26;;;;;;;6.15;1.27;;;;;;;;;;4976849;28;20050;-80
2023/10/21 12:38:21;;;;;;;9.30;2.30;;;;;;;;;;4953481;28;20027;-79
2023/10/21 12:40:38;;;;;;;5.72;1.70;;;;;;;;;;4954446;28;20097;-78
2023/10/21 12:45:47;;;;;;;8.18;1.58;;;;;;;;;;4965929;28;20050;-77
2023/10/21 12:48:13;;;;;;;10.45;2.50;;;;;;;;;;4969011;28;20023;-78
2023/10/21 12:50:40;;;;;;;17.65;3.13;;;;;;;;;;4949485;28;20030;-78
2023/10/21 12:53:08;;;;;;;10.48;1.80;;;;;;;;;;4953741;28;20031;-79
2023/10/21 12:55:35;;;;;;;12.90;1.92;;;;;;;;;;4949801;28;20083;-78
2023/10/21 12:58:02;;;;;;;10.27;1.40;;;;;;;;;;4969675;28;20143;-78
2023/10/21 13:00:29;;;;;;;7.57;1.45;;;;;;;;;;4970285;28;20046;-78
2023/10/21 13:02:55;;;;;;;7.95;1.58;;;;;;;;;;4969211;28;20039;-79
2023/10/21 13:05:21;;;;;;;13.35;2.22;;;;;;;;;;4962808;28;20030;-79
2023/10/21 13:07:47;;;;;;;7.28;1.90;;;;;;;;;;4972899;28;20043;-78
2023/10/21 13:10:13;;;;;;;9.52;2.75;;;;;;;;;;4969880;28;20045;-79
2023/10/21 13:12:40;;;;;;;12.90;2.13;;;;;;;;;;4968146;28;20030;-79
2023/10/21 13:15:11;;;;;;;13.73;1.90;;;;;;;;;;4953120;28;20034;-79
2023/10/21 13:17:38;;;;;;;12.93;2.08;;;;;;;;;;4970843;28;20031;-79
2023/10/21 13:20:05;;;;;;;10.38;2.13;;;;;;;;;;4968439;28;20042;-78
2023/10/21 13:22:34;;;;;;;12.73;2.05;;;;;;;;;;4952680;28;20034;-78
2023/10/21 13:25:07;;;;;;;13.63;2.10;;;;;;;;;;4970231;28;20484;-78
2023/10/21 13:27:33;;;;;;;12.05;2.63;;;;;;;;;;4969027;28;20046;-78
2023/10/21 13:30:00;;;;;;;10.07;1.88;;;;;;;;;;4967721;28;20034;-79
2023/10/21 13:32:27;;;;;;;15.45;2.88;;;;;;;;;;4962750;28;20465;-77
2023/10/21 13:34:54;;;;;;;15.38;2.60;;;;;;;;;;4977431;28;20030;-78
2023/10/21 13:37:21;;;;;;;10.88;2.15;;;;;;;;;;4974261;28;20027;-77
2023/10/21 13:39:47;;;;;;;19.55;2.97;;;;;;;;;;4969927;28;20134;-77
2023/10/21 13:42:13;;;;;;;13.60;1.98;;;;;;;;;;4962846;28;20031;-77
2023/10/21 13:44:39;;;;;;;18.83;2.53;;;;;;;;;;4940450;28;20282;-79
2023/10/21 13:47:08;;;;;;;10.98;1.83;;;;;;;;;;4950208;28;20039;-77
2023/10/21 13:49:43;;;;;;;11.65;2.38;;;;;;;;;;4948445;28;20134;-77
2023/10/21 13:52:09;;;;;;;8.52;1.83;;;;;;;;;;4965619;28;20089;-78
2023/10/21 13:54:37;;;;;;;13.52;2.25;;;;;;;;;;4950549;28;20066;-77
2023/10/21 13:57:04;;;;;;;10.77;2.33;;;;;;;;;;4971288;28;20138;-77
2023/10/21 13:59:30;;;;;;;12.05;2.65;;;;;;;;;;4954971;28;20527;-78
2023/10/21 14:01:57;;;;;;;11.60;1.92;;;;;;;;;;4951934;28;20507;-77
2023/10/21 14:04:25;;;;;;;9.20;2.33;;;;;;;;;;4951961;28;20511;-77
2023/10/21 14:06:52;;;;;;;14.02;2.40;;;;;;;;;;4969656;28;20031;-77
2023/10/21 14:09:24;;;;;;;14.30;2.63;;;;;;;;;;4969172;28;20093;-77
2023/10/21 14:11:51;;;;;;;15.90;2.55;;;;;;;;;;4951835;28;20071;-80
2023/10/21 14:14:18;;;;;;;13.60;3.60;;;;;;;;;;4965175;28;20026;-79
2023/10/21 14:16:44;;;;;;;13.38;2.88;;;;;;;;;;4971453;28;20035;-77
2023/10/21 14:19:10;;;;;;;13.82;2.63;;;;;;;;;;4952097;28;20107;-79
2023/10/21 14:21:36;;;;;;;21.10;2.63;;;;;;;;;;4968406;28;20051;-78
2023/10/21 14:24:03;;;;;;;15.88;2.60;;;;;;;;;;4966125;28;20946;-78
2023/10/21 14:26:29;;;;;;;12.48;2.20;;;;;;;;;;4955056;28;20413;-79
2023/10/21 14:28:55;;;;;;;12.60;2.33;;;;;;;;;;4923817;29;20039;-79
2023/10/21 14:31:31;;;;;;;18.00;2.80;;;;;;;;;;4950051;28;20074;-79
2023/10/21 14:33:57;;;;;;;18.58;3.45;;;;;;;;;;4932443;29;20118;-78
2023/10/21 14:36:23;;;;;;;15.35;2.88;;;;;;;;;;4922160;29;20505;-77
2023/10/21 14:38:50;;;;;;;9.63;2.50;;;;;;;;;;4950939;29;20059;-79
2023/10/21 14:41:16;;;;;;;13.00;2.70;;;;;;;;;;4901788;29;20066;-78
2023/10/21 14:43:42;;;;;;;21.58;2.83;;;;;;;;;;4932895;29;20043;-78
2023/10/21 14:46:09;;;;;;;12.52;3.28;;;;;;;;;;4951810;29;20058;-78
2023/10/21 14:48:35;;;;;;;13.98;2.75;;;;;;;;;;4934343;29;20081;-78
2023/10/21 14:51:02;;;;;;;18.02;3.33;;;;;;;;;;4950647;29;20059;-77
2023/10/21 14:53:29;;;;;;;17.23;3.05;;;;;;;;;;4929647;29;20035;-79
2023/10/21 14:55:55;;;;;;;15.00;3.13;;;;;;;;;;4944350;29;20031;-79
2023/10/21 14:58:25;;;;;;;16.00;2.72;;;;;;;;;;4929970;29;20032;-77
2023/10/21 15:00:52;;;;;;;16.95;2.63;;;;;;;;;;4940215;29;20046;-77
2023/10/21 15:03:21;;;;;;;17.42;3.90;;;;;;;;;;4949980;28;20090;-77